Time;durP1;ratioP1;P1;durP2;ratioP2;P2;SDS_P1;SDS_P2;PMS_P1;PMS_P2;Temp;Humidity;BMP_temperature;BMP_pressure;BME280_temperature;BME280_humidity;BME280_pressure;Samples;Min_cycle;Max_cycle;Signal;HPM_P1;HPM_P2
2021/10/24 06:36:31;;;;;;;8.70;6.70;;;1.70;99.90;;;;;;6242119;22;20477;-89
2021/10/24 06:38:56;;;;;;;8.97;7.90;;;1.70;99.90;;;;;;6232331;22;20443;-88
2021/10/24 06:41:22;;;;;;;8.30;7.00;;;1.80;99.90;;;;;;6237725;22;20407;-88
2021/10/24 06:43:48;;;;;;;7.57;6.17;;;1.90;99.90;;;;;;6238123;22;20604;-89
2021/10/24 06:46:14;;;;;;;8.10;6.50;;;2.00;99.90;;;;;;6213784;22;20200;-89
2021/10/24 06:48:39;;;;;;;7.33;6.10;;;2.10;99.90;;;;;;6209378;22;20586;-90
2021/10/24 06:51:05;;;;;;;6.47;5.87;;;2.20;99.90;;;;;;6234969;22;20397;-90
2021/10/24 06:53:31;;;;;;;5.63;5.13;;;2.20;99.90;;;;;;6232976;22;20162;-88
2021/10/24 06:55:57;;;;;;;8.07;5.30;;;2.30;99.90;;;;;;6231779;22;20496;-89
2021/10/24 06:58:23;;;;;;;6.50;5.23;;;2.30;99.90;;;;;;6261941;22;20166;-90
2021/10/24 07:00:48;;;;;;;8.13;5.77;;;2.40;99.90;;;;;;6234683;22;20401;-89
2021/10/24 07:03:14;;;;;;;6.43;4.97;;;2.50;99.90;;;;;;6234874;22;20601;-91
2021/10/24 07:05:42;;;;;;;6.63;4.10;;;2.70;99.90;;;;;;6233356;22;20419;-91
2021/10/24 07:08:10;;;;;;;8.07;4.70;;;2.70;99.90;;;;;;6249904;22;20162;-90
2021/10/24 07:11:10;;;;;;;5.43;4.90;;;2.90;99.90;;;;;;6233905;22;20408;-91
2021/10/24 07:13:36;;;;;;;5.20;4.20;;;3.00;99.90;;;;;;6260377;22;20393;-90
2021/10/24 07:16:02;;;;;;;7.63;6.07;;;3.20;99.90;;;;;;6235181;22;20406;-88
2021/10/24 07:18:27;;;;;;;10.13;7.83;;;3.40;99.90;;;;;;6235811;22;20257;-90
2021/10/24 07:20:53;;;;;;;8.07;6.43;;;3.50;99.90;;;;;;6236609;22;20202;-90
2021/10/24 07:23:20;;;;;;;6.53;5.90;;;3.30;99.90;;;;;;6234960;22;20158;-90
2021/10/24 07:25:46;;;;;;;6.80;6.10;;;3.20;99.90;;;;;;6211738;22;20202;-90
2021/10/24 07:28:12;;;;;;;8.47;7.20;;;3.00;99.90;;;;;;6248222;22;20495;-91
2021/10/24 07:30:37;;;;;;;6.63;5.90;;;3.00;99.90;;;;;;6239444;22;20158;-89
2021/10/24 07:33:05;;;;;;;7.47;6.57;;;3.10;99.90;;;;;;6236606;22;20664;-90
2021/10/24 07:35:30;;;;;;;6.80;6.00;;;3.10;99.90;;;;;;6236213;22;20527;-90
2021/10/24 07:37:57;;;;;;;8.30;5.73;;;3.20;99.90;;;;;;6235456;22;20617;-91
2021/10/24 07:40:24;;;;;;;5.93;5.43;;;3.10;99.90;;;;;;6261374;22;20234;-90
2021/10/24 07:42:50;;;;;;;7.90;6.67;;;3.10;99.90;;;;;;6233601;22;20392;-89
2021/10/24 07:45:19;;;;;;;7.77;6.30;;;3.20;99.90;;;;;;6234872;22;20775;-90
2021/10/24 07:47:46;;;;;;;9.10;6.50;;;3.50;99.90;;;;;;6235842;22;20463;-91
2021/10/24 07:50:11;;;;;;;6.97;6.27;;;3.80;99.90;;;;;;6236701;22;20868;-90
2021/10/24 07:52:38;;;;;;;6.53;5.93;;;4.00;99.90;;;;;;6236791;22;20816;-89
2021/10/24 07:55:06;;;;;;;7.40;5.97;;;4.30;99.90;;;;;;6235484;22;20699;-90
2021/10/24 07:57:31;;;;;;;6.23;5.63;;;4.40;99.90;;;;;;6235248;22;20399;-89
2021/10/24 07:59:57;;;;;;;7.17;6.53;;;4.80;99.90;;;;;;6234639;22;20397;-89
2021/10/24 08:02:23;;;;;;;8.80;6.63;;;5.20;99.90;;;;;;6233738;22;20539;-91
2021/10/24 08:04:49;;;;;;;8.53;7.10;;;5.50;99.90;;;;;;6234495;22;20189;-91
2021/10/24 08:07:17;;;;;;;7.40;6.80;;;5.70;99.90;;;;;;6231492;22;20641;-89
2021/10/24 08:09:44;;;;;;;7.03;6.33;;;5.80;99.90;;;;;;6227745;22;20399;-90
2021/10/24 08:12:10;;;;;;;6.53;5.80;;;6.10;99.90;;;;;;6205418;22;20404;-89
2021/10/24 08:14:36;;;;;;;7.10;6.00;;;6.40;99.90;;;;;;6234074;22;21093;-91
2021/10/24 08:17:08;;;;;;;5.97;5.17;;;6.60;99.90;;;;;;6226778;22;20400;-90
2021/10/24 08:19:34;;;;;;;6.83;5.70;;;6.50;99.90;;;;;;6227657;22;20404;-89
2021/10/24 08:22:00;;;;;;;6.57;5.93;;;6.30;99.90;;;;;;6230649;22;20395;-89
2021/10/24 08:24:29;;;;;;;8.17;5.60;;;6.30;99.90;;;;;;6229779;22;20734;-89
2021/10/24 08:26:55;;;;;;;6.10;5.50;;;6.40;99.90;;;;;;6232184;22;20498;-89
2021/10/24 08:29:21;;;;;;;8.97;7.43;;;6.70;99.90;;;;;;6231720;22;20406;-89
2021/10/24 08:31:53;;;;;;;7.67;5.93;;;7.00;99.90;;;;;;6232829;22;20902;-88
2021/10/24 08:34:23;;;;;;;7.53;5.40;;;7.20;99.90;;;;;;6232609;22;20402;-88
2021/10/24 08:36:49;;;;;;;7.73;6.10;;;7.60;99.90;;;;;;6233819;22;20412;-89
2021/10/24 08:39:15;;;;;;;6.57;5.80;;;7.50;99.90;;;;;;6229979;22;20428;-88
2021/10/24 08:41:47;;;;;;;6.50;5.87;;;7.50;99.90;;;;;;6231685;22;20385;-88
2021/10/24 08:44:14;;;;;;;7.73;6.23;;;7.50;99.90;;;;;;6228669;22;20692;-89
2021/10/24 08:46:43;;;;;;;7.07;6.37;;;7.50;99.90;;;;;;6233036;22;21198;-89
2021/10/24 08:49:14;;;;;;;6.90;6.40;;;7.50;99.90;;;;;;6232270;22;20747;-90
2021/10/24 08:51:39;;;;;;;6.93;6.23;;;7.50;99.90;;;;;;6228698;22;20791;-89
2021/10/24 08:54:08;;;;;;;10.07;6.17;;;7.50;99.90;;;;;;6229921;22;20405;-90
2021/10/24 08:56:34;;;;;;;7.77;7.07;;;7.80;99.90;;;;;;6233043;22;20709;-88
2021/10/24 08:59:00;;;;;;;6.80;6.20;;;8.20;99.90;;;;;;6237123;22;20399;-89
2021/10/24 09:01:27;;;;;;;7.50;6.80;;;8.50;99.90;;;;;;6234096;22;20434;-89
2021/10/24 09:04:13;;;;;;;7.47;6.57;;;8.70;99.90;;;;;;6229581;22;20798;-90
2021/10/24 09:06:56;;;;;;;7.37;6.67;;;8.80;99.90;;;;;;6257621;22;20454;-89
2021/10/24 09:09:24;;;;;;;8.07;7.20;;;8.90;99.90;;;;;;6229001;22;20494;-88
2021/10/24 09:11:52;;;;;;;7.30;6.53;;;8.90;99.90;;;;;;6229358;22;20388;-89
2021/10/24 09:14:44;;;;;;;7.87;7.07;;;9.10;99.90;;;;;;6228664;22;20433;-89
2021/10/24 09:17:13;;;;;;;8.10;6.90;;;9.30;99.90;;;;;;6230983;22;20506;-89
2021/10/24 09:19:46;;;;;;;8.53;7.13;;;9.70;99.90;;;;;;6232996;22;20455;-89
2021/10/24 09:22:13;;;;;;;7.97;7.17;;;10.00;99.90;;;;;;6232932;22;20958;-90
2021/10/24 09:24:57;;;;;;;7.30;6.60;;;9.80;99.90;;;;;;6233663;22;20393;-91
2021/10/24 09:27:22;;;;;;;7.87;7.03;;;9.80;99.90;;;;;;6233719;22;20405;-91
2021/10/24 09:30:19;;;;;;;8.23;6.97;;;9.90;99.90;;;;;;6236593;22;20495;-91
2021/10/24 09:33:11;;;;;;;7.60;6.90;;;9.50;99.90;;;;;;6213319;22;20170;-91
2021/10/24 09:35:50;;;;;;;6.70;6.10;;;9.60;99.90;;;;;;6226973;22;20748;-91
2021/10/24 09:38:22;;;;;;;6.50;5.90;;;10.10;99.90;;;;;;6235074;22;20419;-90
2021/10/24 09:40:54;;;;;;;7.80;6.70;;;10.60;99.90;;;;;;6234124;22;20403;-89
2021/10/24 09:43:26;;;;;;;8.37;6.60;;;10.60;99.80;;;;;;6231560;22;20393;-89
2021/10/24 09:45:59;;;;;;;6.97;6.37;;;10.50;99.90;;;;;;6230784;22;20816;-88
2021/10/24 09:49:02;;;;;;;7.27;6.57;;;10.70;99.60;;;;;;6264863;22;20479;-94
2021/10/24 09:51:44;;;;;;;8.53;6.57;;;10.60;99.60;;;;;;6222835;22;20552;-94
2021/10/24 09:54:18;;;;;;;7.00;6.30;;;11.00;99.70;;;;;;6239099;22;20510;-95
2021/10/24 09:56:53;;;;;;;8.87;6.93;;;11.30;99.10;;;;;;6218732;22;20487;-95
2021/10/24 09:59:25;;;;;;;7.30;6.70;;;11.80;98.70;;;;;;6240577;22;21000;-93
2021/10/24 10:01:52;;;;;;;6.83;6.23;;;12.20;98.60;;;;;;6239394;22;20483;-95
2021/10/24 10:04:24;;;;;;;8.30;6.77;;;12.40;96.90;;;;;;6239400;22;20705;-93
2021/10/24 10:06:50;;;;;;;6.30;5.80;;;12.50;96.50;;;;;;6234906;22;20494;-94
2021/10/24 10:09:16;;;;;;;6.40;5.57;;;12.30;95.90;;;;;;6237924;22;21260;-87
2021/10/24 10:12:03;;;;;;;5.73;5.33;;;12.30;95.60;;;;;;6234197;22;20411;-87
2021/10/24 10:14:33;;;;;;;6.43;5.20;;;12.60;95.80;;;;;;6233776;22;20389;-87
2021/10/24 10:17:06;;;;;;;5.57;5.13;;;12.70;94.90;;;;;;6233365;22;20407;-90
2021/10/24 10:19:42;;;;;;;5.80;5.23;;;12.90;95.70;;;;;;6233579;22;20388;-87
2021/10/24 10:22:41;;;;;;;6.93;6.00;;;13.40;96.20;;;;;;6209188;22;20411;-90
2021/10/24 10:25:08;;;;;;;5.80;5.20;;;13.60;94.40;;;;;;6232546;22;20440;-88
2021/10/24 10:27:38;;;;;;;5.33;4.83;;;13.80;92.90;;;;;;6235964;22;20408;-88
2021/10/24 10:30:06;;;;;;;6.37;5.53;;;14.20;93.90;;;;;;6244047;22;20421;-88
2021/10/24 10:32:36;;;;;;;5.57;5.07;;;13.90;92.20;;;;;;6249594;22;20456;-89
2021/10/24 10:35:02;;;;;;;5.70;5.20;;;13.30;92.60;;;;;;6234316;22;20393;-88
2021/10/24 10:37:43;;;;;;;6.60;4.90;;;13.00;93.40;;;;;;6235947;22;20420;-89
2021/10/24 10:40:24;;;;;;;5.63;4.97;;;13.30;93.60;;;;;;6235531;22;20409;-88
2021/10/24 10:42:57;;;;;;;5.90;5.40;;;14.00;92.70;;;;;;6236546;22;20404;-88
2021/10/24 10:45:45;;;;;;;6.40;5.83;;;14.50;93.60;;;;;;6236053;22;20864;-89
2021/10/24 10:48:27;;;;;;;6.70;5.60;;;14.70;94.10;;;;;;6236914;22;20401;-88
2021/10/24 10:51:02;;;;;;;7.50;5.83;;;14.90;93.40;;;;;;6236311;22;20685;-88
2021/10/24 10:53:31;;;;;;;5.43;4.93;;;14.70;93.50;;;;;;6236703;22;20400;-88
2021/10/24 10:55:56;;;;;;;6.30;5.70;;;14.80;93.40;;;;;;6236219;22;20492;-89
2021/10/24 10:58:40;;;;;;;5.70;5.20;;;14.70;94.50;;;;;;6237248;22;20471;-89
2021/10/24 11:01:07;;;;;;;6.67;5.97;;;15.00;94.10;;;;;;6235881;22;20173;-88
2021/10/24 11:03:57;;;;;;;5.67;5.20;;;15.20;93.10;;;;;;6235747;22;20413;-89
2021/10/24 11:06:22;;;;;;;5.57;5.00;;;14.20;93.40;;;;;;6237867;22;20498;-88
2021/10/24 11:08:59;;;;;;;5.43;5.00;;;14.50;94.70;;;;;;6236643;22;20397;-88
2021/10/24 11:11:40;;;;;;;7.83;5.23;;;14.50;93.80;;;;;;6237528;22;20196;-88
2021/10/24 11:14:11;;;;;;;5.03;4.63;;;15.00;94.20;;;;;;6237541;22;20840;-88
2021/10/24 11:16:50;;;;;;;5.33;4.93;;;15.20;93.10;;;;;;6239624;22;20393;-87
2021/10/24 11:19:46;;;;;;;5.60;5.20;;;15.40;92.30;;;;;;6212582;22;20890;-87
2021/10/24 11:22:15;;;;;;;5.80;5.30;;;15.80;92.90;;;;;;6263110;22;20392;-87
2021/10/24 11:24:48;;;;;;;4.73;4.33;;;16.10;92.00;;;;;;6236072;22;21040;-87
2021/10/24 11:27:35;;;;;;;5.87;5.10;;;16.60;90.10;;;;;;6236280;22;20403;-87
2021/10/24 11:30:15;;;;;;;6.20;5.10;;;16.80;88.00;;;;;;6235805;22;20894;-87
2021/10/24 11:32:40;;;;;;;6.80;4.80;;;16.90;90.10;;;;;;6236676;22;20806;-87
2021/10/24 11:35:09;;;;;;;8.20;4.80;;;16.30;89.70;;;;;;6236214;22;20586;-87
2021/10/24 11:37:45;;;;;;;5.00;4.60;;;16.00;90.30;;;;;;6236455;22;20186;-87
2021/10/24 11:40:45;;;;;;;5.20;4.70;;;15.70;90.20;;;;;;6236080;22;20411;-87
2021/10/24 11:43:19;;;;;;;4.90;4.50;;;15.70;91.70;;;;;;6234933;22;20397;-87
2021/10/24 11:45:49;;;;;;;4.57;3.93;;;16.30;92.20;;;;;;6261870;22;20609;-87
2021/10/24 11:48:17;;;;;;;5.17;4.67;;;17.00;90.30;;;;;;6236129;22;20459;-88
2021/10/24 11:50:50;;;;;;;4.43;4.03;;;17.40;87.90;;;;;;6236360;22;20405;-87
2021/10/24 11:53:32;;;;;;;5.97;4.53;;;17.70;89.80;;;;;;6236804;22;20401;-88
2021/10/24 11:56:08;;;;;;;5.27;4.87;;;18.20;88.60;;;;;;6236914;22;20922;-87
2021/10/24 12:01:26;;;;;;;5.27;4.30;;;18.80;85.00;;;;;;6276609;22;20392;-88
2021/10/24 12:04:14;;;;;;;4.97;4.47;;;19.50;81.30;;;;;;6237119;22;20393;-87
2021/10/24 12:06:49;;;;;;;4.80;4.20;;;20.20;80.90;;;;;;6235895;22;20778;-87
2021/10/24 12:09:34;;;;;;;4.80;4.40;;;20.80;76.80;;;;;;6235574;22;20502;-88
2021/10/24 12:12:10;;;;;;;4.67;4.20;;;21.40;75.60;;;;;;6236248;22;20405;-87
2021/10/24 12:15:02;;;;;;;5.50;4.50;;;23.20;69.40;;;;;;6236070;22;20404;-87
2021/10/24 12:17:40;;;;;;;5.10;4.70;;;24.90;62.20;;;;;;6236359;22;20393;-88
2021/10/24 12:20:12;;;;;;;5.30;4.80;;;25.60;61.70;;;;;;6236340;22;20389;-87
2021/10/24 12:23:13;;;;;;;4.60;4.20;;;25.50;57.70;;;;;;6262963;22;20389;-88
2021/10/24 12:25:52;;;;;;;4.77;4.37;;;25.90;57.80;;;;;;6237238;22;20444;-88
2021/10/24 12:28:40;;;;;;;6.53;5.23;;;26.60;55.60;;;;;;6236303;22;20389;-89
2021/10/24 12:31:19;;;;;;;5.33;4.57;;;26.40;54.90;;;;;;6235700;22;20397;-88
2021/10/24 12:33:46;;;;;;;4.37;4.07;;;25.60;55.70;;;;;;6236712;22;20411;-88
2021/10/24 12:36:34;;;;;;;4.63;4.23;;;25.70;55.80;;;;;;6235637;22;20397;-88
2021/10/24 12:39:01;;;;;;;4.30;3.90;;;25.80;56.00;;;;;;6234700;22;20400;-88
2021/10/24 12:41:45;;;;;;;6.63;4.90;;;26.00;55.10;;;;;;6235711;22;20496;-88
2021/10/24 12:44:17;;;;;;;5.57;5.07;;;26.10;54.00;;;;;;6235342;22;20442;-88
2021/10/24 12:46:43;;;;;;;5.07;4.67;;;25.90;55.40;;;;;;6235317;22;20444;-88
2021/10/24 12:49:13;;;;;;;5.70;5.30;;;26.10;54.70;;;;;;6236726;22;20415;-89
2021/10/24 12:51:41;;;;;;;5.37;4.90;;;25.70;54.50;;;;;;6235323;22;20874;-88
2021/10/24 12:54:09;;;;;;;5.33;4.93;;;26.00;54.10;;;;;;6236186;22;20810;-88
2021/10/24 12:56:38;;;;;;;6.13;5.63;;;26.00;55.30;;;;;;6236898;22;20393;-89
2021/10/24 12:59:13;;;;;;;4.90;4.50;;;26.10;54.10;;;;;;6235588;22;20404;-88
2021/10/24 13:01:46;;;;;;;4.90;4.40;;;25.60;53.50;;;;;;6235130;22;20805;-89
2021/10/24 13:04:12;;;;;;;5.40;4.97;;;24.20;56.40;;;;;;6235404;22;20820;-88
2021/10/24 13:06:38;;;;;;;4.73;4.27;;;22.20;59.80;;;;;;6235691;22;20511;-88
2021/10/24 13:09:03;;;;;;;7.87;4.50;;;20.90;64.10;;;;;;6235595;22;20177;-88
2021/10/24 13:11:29;;;;;;;5.53;5.03;;;20.10;65.00;;;;;;6235803;22;20173;-88
2021/10/24 13:13:56;;;;;;;5.83;5.30;;;19.40;67.20;;;;;;6235938;22;20436;-88
2021/10/24 13:16:22;;;;;;;5.33;4.93;;;19.00;69.10;;;;;;6235463;22;20212;-88
2021/10/24 13:18:48;;;;;;;5.80;5.20;;;18.50;69.80;;;;;;6231523;22;20401;-88
2021/10/24 13:24:06;;;;;;;5.40;5.00;;;17.90;72.60;;;;;;6263184;22;20483;-88
2021/10/24 13:26:35;;;;;;;4.80;4.40;;;17.30;75.70;;;;;;6233633;22;20458;-88
2021/10/24 13:29:02;;;;;;;7.10;4.60;;;17.00;77.00;;;;;;6236253;22;20385;-87
2021/10/24 13:31:28;;;;;;;5.73;4.70;;;16.70;77.70;;;;;;6248349;22;20404;-88
2021/10/24 13:33:54;;;;;;;5.10;4.70;;;16.70;80.20;;;;;;6234631;22;20384;-88
2021/10/24 13:36:24;;;;;;;5.90;4.40;;;16.40;78.70;;;;;;6233736;22;20191;-88
2021/10/24 13:38:51;;;;;;;5.53;4.67;;;16.50;79.00;;;;;;6234706;22;20404;-88
2021/10/24 13:41:17;;;;;;;5.40;4.90;;;16.70;79.70;;;;;;6233700;22;20412;-88
2021/10/24 13:43:45;;;;;;;5.50;5.00;;;16.80;79.60;;;;;;6233008;22;20390;-88
2021/10/24 13:46:11;;;;;;;6.03;4.90;;;16.60;80.80;;;;;;6234009;22;20313;-88
2021/10/24 13:48:39;;;;;;;7.90;4.90;;;16.80;82.90;;;;;;6235118;22;20483;-88
2021/10/24 13:51:05;;;;;;;8.13;7.20;;;17.30;79.80;;;;;;6234348;22;20399;-88
2021/10/24 13:53:30;;;;;;;5.67;4.87;;;16.80;79.60;;;;;;6235681;22;20396;-88
2021/10/24 13:55:56;;;;;;;7.10;5.30;;;16.20;82.20;;;;;;6234683;22;20581;-88
2021/10/24 13:58:23;;;;;;;7.20;5.20;;;15.80;84.80;;;;;;6234531;22;20492;-88
2021/10/24 14:00:49;;;;;;;5.83;5.33;;;15.60;84.70;;;;;;6235749;22;20597;-88
2021/10/24 14:03:18;;;;;;;6.87;6.10;;;15.40;85.40;;;;;;6236070;22;20443;-88
2021/10/24 14:05:44;;;;;;;6.97;5.73;;;15.30;86.20;;;;;;6235895;22;21231;-88
2021/10/24 14:08:10;;;;;;;6.80;6.10;;;15.10;87.00;;;;;;6236640;22;20484;-88
2021/10/24 14:10:38;;;;;;;5.90;5.40;;;15.00;88.10;;;;;;6237811;22;20424;-88
2021/10/24 14:13:04;;;;;;;5.30;4.80;;;14.90;89.20;;;;;;6236648;22;20194;-88
2021/10/24 14:15:30;;;;;;;6.10;5.30;;;15.00;89.30;;;;;;6235771;22;20764;-88
2021/10/24 14:18:08;;;;;;;5.37;4.87;;;14.90;88.10;;;;;;6237524;22;20167;-88
2021/10/24 14:20:34;;;;;;;4.83;4.43;;;14.90;88.10;;;;;;6236799;22;20415;-88
2021/10/24 14:23:02;;;;;;;6.00;4.80;;;15.20;87.00;;;;;;6235695;22;20397;-88
2021/10/24 14:25:27;;;;;;;5.50;5.10;;;15.30;88.60;;;;;;6236291;22;20240;-88
2021/10/24 14:27:53;;;;;;;5.43;4.87;;;15.50;86.00;;;;;;6237340;22;20863;-88
2021/10/24 14:30:19;;;;;;;4.97;4.50;;;15.70;84.00;;;;;;6237040;22;20554;-88
2021/10/24 14:32:44;;;;;;;4.73;4.30;;;15.90;83.30;;;;;;6237761;22;20167;-88
2021/10/24 14:35:10;;;;;;;5.30;4.53;;;16.00;84.80;;;;;;6236456;22;20221;-88
2021/10/24 14:37:37;;;;;;;5.87;5.43;;;15.90;86.00;;;;;;6237796;22;20221;-88
2021/10/24 14:40:11;;;;;;;5.70;5.20;;;15.70;85.80;;;;;;6236762;22;20169;-88
2021/10/24 14:42:36;;;;;;;5.17;4.60;;;15.70;86.60;;;;;;6235834;22;20929;-88
2021/10/24 14:45:03;;;;;;;4.90;4.50;;;15.60;86.90;;;;;;6236610;22;20464;-89
2021/10/24 14:47:29;;;;;;;5.00;4.60;;;15.70;87.30;;;;;;6237023;22;20162;-88
2021/10/24 14:49:55;;;;;;;5.97;5.47;;;15.60;87.40;;;;;;6236655;22;20396;-88
2021/10/24 14:52:21;;;;;;;5.03;4.53;;;15.30;89.00;;;;;;6237258;22;20237;-88
2021/10/24 14:54:46;;;;;;;5.60;5.00;;;15.10;89.10;;;;;;6236580;22;20547;-88
2021/10/24 14:57:13;;;;;;;5.50;4.90;;;14.80;90.10;;;;;;6237119;22;20155;-87
2021/10/24 14:59:38;;;;;;;6.00;4.50;;;14.60;90.80;;;;;;6241841;22;20190;-87
2021/10/24 15:02:08;;;;;;;5.70;4.30;;;14.40;90.70;;;;;;6243874;22;20387;-87
2021/10/24 15:04:40;;;;;;;5.87;4.60;;;14.40;91.40;;;;;;6235766;22;20300;-87
2021/10/24 15:07:05;;;;;;;5.73;4.47;;;14.30;93.30;;;;;;6236212;22;21068;-87
2021/10/24 15:09:31;;;;;;;7.23;4.30;;;14.00;94.10;;;;;;6236895;22;20488;-88
2021/10/24 15:11:57;;;;;;;6.70;6.17;;;13.80;94.50;;;;;;6236816;22;20609;-87
2021/10/24 15:14:24;;;;;;;5.10;4.60;;;13.60;94.90;;;;;;6236705;22;20601;-87
2021/10/24 15:17:01;;;;;;;4.70;4.27;;;13.50;95.10;;;;;;6236755;22;20436;-87
2021/10/24 15:21:54;;;;;;;5.97;4.97;;;13.30;96.10;;;;;;6264635;22;20424;-87
2021/10/24 15:24:20;;;;;;;6.20;4.20;;;13.20;96.60;;;;;;6236673;22;20169;-88
2021/10/24 15:26:46;;;;;;;5.30;4.47;;;13.00;97.00;;;;;;6235965;22;20515;-87
2021/10/24 15:29:23;;;;;;;4.20;3.80;;;12.90;97.50;;;;;;6236886;22;20397;-87
2021/10/24 15:31:49;;;;;;;5.47;4.00;;;12.80;98.10;;;;;;6264162;22;20411;-88
2021/10/24 15:34:15;;;;;;;6.00;4.30;;;12.70;99.00;;;;;;6263824;22;20855;-87
2021/10/24 15:36:40;;;;;;;7.60;4.20;;;12.50;99.30;;;;;;6236701;22;20273;-87
2021/10/24 15:39:07;;;;;;;5.33;4.23;;;12.40;99.70;;;;;;6235551;22;20243;-87
2021/10/24 15:41:33;;;;;;;4.80;4.37;;;12.20;99.80;;;;;;6237106;22;20162;-87
2021/10/24 15:44:08;;;;;;;5.63;4.17;;;12.10;99.90;;;;;;6235123;22;20401;-87
2021/10/24 15:46:39;;;;;;;8.60;4.57;;;12.00;99.90;;;;;;6236310;22;20479;-87
2021/10/24 15:49:05;;;;;;;4.40;4.00;;;11.80;99.90;;;;;;6236144;22;20421;-87
2021/10/24 15:51:44;;;;;;;4.57;4.17;;;11.70;99.90;;;;;;6236251;22;20401;-88
2021/10/24 15:54:15;;;;;;;4.77;4.33;;;11.60;99.90;;;;;;6235324;22;20190;-87
2021/10/24 15:56:43;;;;;;;6.97;4.67;;;11.60;99.90;;;;;;6235372;22;20466;-87
2021/10/24 15:59:08;;;;;;;7.30;4.37;;;11.50;99.90;;;;;;6236847;22;20396;-87
2021/10/24 16:01:34;;;;;;;7.17;4.27;;;11.30;99.90;;;;;;6235590;22;20970;-87
2021/10/24 16:04:00;;;;;;;4.53;4.13;;;11.00;99.90;;;;;;6235847;22;20167;-87
2021/10/24 16:06:26;;;;;;;5.10;3.60;;;11.00;99.90;;;;;;6235928;22;20650;-87
2021/10/24 16:08:53;;;;;;;5.17;4.30;;;10.90;99.90;;;;;;6235913;22;20401;-87
2021/10/24 16:11:20;;;;;;;4.43;4.03;;;10.70;99.90;;;;;;6236703;22;20408;-87
2021/10/24 16:13:45;;;;;;;4.70;4.23;;;10.60;99.90;;;;;;6235911;22;20483;-86
2021/10/24 16:16:18;;;;;;;4.93;4.30;;;10.50;99.90;;;;;;6234515;22;20941;-87
2021/10/24 16:18:44;;;;;;;4.73;4.27;;;10.40;99.90;;;;;;6235238;22;20242;-87
2021/10/24 16:21:10;;;;;;;6.87;4.20;;;10.30;99.90;;;;;;6235938;22;20440;-87
2021/10/24 16:23:35;;;;;;;5.87;4.57;;;10.20;99.90;;;;;;6234664;22;20624;-87
2021/10/24 16:26:01;;;;;;;5.33;4.43;;;10.10;99.90;;;;;;6236149;22;20475;-87
2021/10/24 16:28:27;;;;;;;5.23;3.80;;;10.10;99.90;;;;;;6234517;22;20166;-87
2021/10/24 16:30:54;;;;;;;4.90;4.50;;;10.00;99.90;;;;;;6246543;22;20158;-86
2021/10/24 16:33:21;;;;;;;5.13;4.40;;;9.70;99.90;;;;;;6238992;22;20400;-87
2021/10/24 16:35:47;;;;;;;4.80;4.00;;;9.60;99.90;;;;;;6234757;22;20404;-88
2021/10/24 16:38:13;;;;;;;9.60;4.03;;;9.50;99.90;;;;;;6234547;22;20883;-87
2021/10/24 16:40:38;;;;;;;7.43;4.30;;;9.40;99.90;;;;;;6234943;22;20415;-88
2021/10/24 16:43:04;;;;;;;5.10;4.63;;;9.40;99.90;;;;;;6235401;22;20393;-87
2021/10/24 16:45:30;;;;;;;5.70;5.07;;;9.40;99.90;;;;;;6235249;22;20200;-87
2021/10/24 16:47:56;;;;;;;6.60;6.00;;;9.40;99.90;;;;;;6234986;22;20254;-87
2021/10/24 16:50:23;;;;;;;5.90;5.30;;;9.40;99.90;;;;;;6235024;22;20526;-87
2021/10/24 16:52:50;;;;;;;5.40;4.90;;;9.30;99.90;;;;;;6233921;22;20551;-87
2021/10/24 16:55:18;;;;;;;6.50;5.03;;;9.30;99.90;;;;;;6235916;22;20777;-87
2021/10/24 16:57:44;;;;;;;6.97;5.30;;;9.30;99.90;;;;;;6235617;22;20472;-87
2021/10/24 17:00:13;;;;;;;5.93;5.43;;;9.10;99.90;;;;;;6263238;22;20417;-87
2021/10/24 17:02:39;;;;;;;5.30;4.80;;;9.00;99.90;;;;;;6235195;22;20472;-87
2021/10/24 17:05:06;;;;;;;6.80;5.57;;;8.90;99.90;;;;;;6234637;22;20388;-87
2021/10/24 17:07:32;;;;;;;6.80;5.47;;;8.80;99.90;;;;;;6235873;22;20424;-87
2021/10/24 17:09:59;;;;;;;9.37;6.90;;;8.80;99.90;;;;;;6235961;22;20408;-87
2021/10/24 17:12:26;;;;;;;6.60;5.87;;;8.80;99.90;;;;;;6234509;22;20527;-87
2021/10/24 17:14:55;;;;;;;7.03;6.33;;;8.70;99.90;;;;;;6235477;22;20427;-87
2021/10/24 17:17:22;;;;;;;7.27;6.20;;;8.70;99.90;;;;;;6235183;22;20455;-87
2021/10/24 17:19:48;;;;;;;7.90;7.20;;;8.60;99.90;;;;;;6235372;22;20922;-87
2021/10/24 17:22:22;;;;;;;7.37;6.57;;;8.50;99.90;;;;;;6235207;22;20836;-87
2021/10/24 17:24:52;;;;;;;7.67;6.87;;;8.50;99.90;;;;;;6233467;22;20405;-87
2021/10/24 17:27:38;;;;;;;8.40;6.13;;;8.40;99.90;;;;;;6235507;22;20830;-87
2021/10/24 17:30:04;;;;;;;6.43;5.83;;;8.30;99.90;;;;;;6235543;22;20404;-87
2021/10/24 17:32:38;;;;;;;7.10;6.40;;;8.40;99.90;;;;;;6263528;22;20737;-87
2021/10/24 17:35:04;;;;;;;7.83;5.47;;;8.50;99.90;;;;;;6235478;22;20411;-88
2021/10/24 17:37:30;;;;;;;6.10;5.50;;;8.40;99.90;;;;;;6234173;22;20911;-88
2021/10/24 17:39:55;;;;;;;7.80;6.37;;;8.40;99.90;;;;;;6236226;22;20807;-87
2021/10/24 17:42:23;;;;;;;7.33;6.30;;;8.40;99.90;;;;;;6237225;22;20624;-88
2021/10/24 17:44:49;;;;;;;6.23;5.33;;;8.30;99.90;;;;;;6236027;22;20201;-88
2021/10/24 17:47:30;;;;;;;5.50;5.00;;;8.20;99.90;;;;;;6238069;22;20659;-87
2021/10/24 17:50:03;;;;;;;7.40;5.90;;;8.10;99.90;;;;;;6237624;22;20166;-88
2021/10/24 17:52:29;;;;;;;8.27;6.10;;;8.00;99.90;;;;;;6236668;22;20396;-88
2021/10/24 17:54:57;;;;;;;6.23;5.63;;;7.80;99.90;;;;;;6237781;22;20407;-88
2021/10/24 17:57:23;;;;;;;5.67;5.17;;;7.70;99.90;;;;;;6233852;22;20174;-88
2021/10/24 17:59:49;;;;;;;6.70;4.70;;;7.60;99.90;;;;;;6243632;22;20408;-87
2021/10/24 18:02:15;;;;;;;6.10;5.43;;;7.50;99.90;;;;;;6244597;22;20170;-88
2021/10/24 18:04:58;;;;;;;6.70;5.10;;;7.50;99.90;;;;;;6236410;22;20591;-88
2021/10/24 18:07:24;;;;;;;6.20;5.50;;;7.50;99.90;;;;;;6263769;22;20174;-88
2021/10/24 18:09:50;;;;;;;6.53;5.63;;;7.40;99.90;;;;;;6236361;22;20803;-88
2021/10/24 18:12:17;;;;;;;6.50;5.30;;;7.40;99.90;;;;;;6237340;22;20720;-87
2021/10/24 18:14:43;;;;;;;5.80;5.20;;;7.40;99.90;;;;;;6234648;22;20245;-87
2021/10/24 18:17:09;;;;;;;6.20;5.60;;;7.20;99.90;;;;;;6236918;22;20410;-88
2021/10/24 18:19:35;;;;;;;7.73;6.93;;;7.00;99.90;;;;;;6236807;22;20403;-88
2021/10/24 18:22:13;;;;;;;7.83;6.90;;;7.00;99.90;;;;;;6237003;22;20166;-87
2021/10/24 18:24:40;;;;;;;8.83;7.70;;;6.90;99.90;;;;;;6232659;22;20431;-89
2021/10/24 18:27:07;;;;;;;8.47;7.63;;;6.90;99.90;;;;;;6233194;22;20449;-89
2021/10/24 18:29:33;;;;;;;7.27;6.20;;;6.80;99.90;;;;;;6234199;22;20392;-90
2021/10/24 18:32:09;;;;;;;7.20;6.20;;;6.80;99.90;;;;;;6236597;22;20431;-91
2021/10/24 18:34:48;;;;;;;7.60;6.00;;;6.70;99.90;;;;;;6239139;22;20745;-90
2021/10/24 18:37:36;;;;;;;7.37;6.60;;;6.70;99.90;;;;;;6261684;22;20422;-89
2021/10/24 18:40:06;;;;;;;7.80;7.07;;;6.70;99.90;;;;;;6265572;22;20394;-91
2021/10/24 18:43:01;;;;;;;7.00;6.40;;;6.70;99.90;;;;;;6238803;22;20427;-91
2021/10/24 18:53:26;;;;;;;7.60;5.90;;;6.70;99.90;;;;;;6296490;22;20429;-87
2021/10/24 18:55:55;;;;;;;9.17;6.20;;;6.60;99.90;;;;;;6272189;22;20494;-87
2021/10/24 18:58:26;;;;;;;6.73;6.13;;;6.50;99.90;;;;;;6270761;22;20462;-86
2021/10/24 19:00:56;;;;;;;7.10;6.50;;;6.60;99.90;;;;;;6271570;22;20425;-86
2021/10/24 19:03:23;;;;;;;7.20;6.57;;;6.70;99.90;;;;;;6297654;22;20413;-87
2021/10/24 19:05:54;;;;;;;7.90;7.10;;;6.60;99.90;;;;;;6299821;22;20805;-87
2021/10/24 19:08:23;;;;;;;10.07;9.10;;;6.50;99.90;;;;;;6271770;22;20390;-87
2021/10/24 19:10:50;;;;;;;9.43;6.80;;;6.40;99.90;;;;;;6271648;22;20828;-87
2021/10/24 19:13:16;;;;;;;6.93;6.23;;;6.40;99.90;;;;;;6272279;22;20392;-87
2021/10/24 19:15:48;;;;;;;6.20;5.60;;;6.20;99.90;;;;;;6271665;22;20397;-88
2021/10/24 19:18:15;;;;;;;7.43;6.40;;;6.10;99.90;;;;;;6271533;22;20435;-88
2021/10/24 19:20:41;;;;;;;6.90;6.00;;;6.00;99.90;;;;;;6271887;22;20409;-88
2021/10/24 19:23:07;;;;;;;6.93;6.30;;;5.90;99.90;;;;;;6248020;22;20392;-94
2021/10/24 19:25:42;;;;;;;8.20;7.40;;;5.90;99.90;;;;;;6278016;22;20440;-92
2021/10/24 19:28:12;;;;;;;8.70;7.30;;;6.00;99.90;;;;;;6270459;22;20716;-93
2021/10/24 19:33:13;;;;;;;7.60;6.90;;;6.00;99.90;;;;;;6305069;22;20402;-88
2021/10/24 19:35:39;;;;;;;7.53;6.83;;;5.90;99.90;;;;;;6267496;22;20401;-87
2021/10/24 19:38:06;;;;;;;7.10;6.50;;;5.90;99.90;;;;;;6298482;22;20419;-88
2021/10/24 19:40:32;;;;;;;7.37;6.70;;;5.90;99.90;;;;;;6269096;22;20425;-89
2021/10/24 19:42:57;;;;;;;8.70;6.57;;;5.90;99.90;;;;;;6272018;22;20495;-89
2021/10/24 19:45:24;;;;;;;7.27;6.27;;;5.90;99.90;;;;;;6269261;22;20464;-88
2021/10/24 19:47:52;;;;;;;10.57;7.00;;;5.80;99.90;;;;;;6268083;22;20165;-87
2021/10/24 19:50:21;;;;;;;7.43;6.37;;;5.70;99.90;;;;;;6267638;22;20787;-87
2021/10/24 19:52:56;;;;;;;7.40;6.80;;;5.70;99.90;;;;;;6271288;22;20448;-87
2021/10/24 19:55:28;;;;;;;6.93;6.33;;;5.80;99.90;;;;;;6267840;22;20502;-87
2021/10/24 19:57:58;;;;;;;7.23;6.53;;;5.70;99.90;;;;;;6270156;22;20446;-88
2021/10/24 20:00:24;;;;;;;7.40;6.27;;;5.70;99.90;;;;;;6261986;22;20403;-88